createdAt,value
2023-04-14T00:00:48.795Z,76082.09
2023-04-14T00:03:18.378Z,76086.16
2023-04-14T00:05:46.673Z,76082.09
2023-04-14T00:08:13.515Z,76086.16
2023-04-14T00:10:41.157Z,76082.09
2023-04-14T00:13:08.016Z,76094.25
2023-04-14T00:15:35.402Z,76094.25
2023-04-14T00:18:02.377Z,76096.28
2023-04-14T00:20:29.883Z,76098.31
2023-04-14T00:22:56.939Z,76098.31
2023-04-14T00:25:24.094Z,76102.38
2023-04-14T00:27:51.460Z,76104.41
2023-04-14T00:30:18.805Z,76102.38
2023-04-14T00:32:46.130Z,76104.41
2023-04-14T00:35:13.426Z,76098.31
2023-04-14T00:37:40.565Z,76102.38
2023-04-14T00:40:11.193Z,76110.47
2023-04-14T00:42:46.194Z,76108.44
2023-04-14T00:45:14.974Z,76110.47
2023-04-14T00:47:47.580Z,76114.53
2023-04-14T00:50:16.922Z,76120.63
2023-04-14T00:52:46.231Z,76155.06
2023-04-14T00:55:16.069Z,76122.63
2023-04-14T00:57:43.006Z,76142.91
2023-04-14T01:00:12.217Z,76132.78
2023-04-14T01:02:39.384Z,76130.75
2023-04-14T01:05:07.426Z,76134.78
2023-04-14T01:07:34.798Z,76142.91
2023-04-14T01:10:02.921Z,76142.91
2023-04-14T01:12:51.429Z,76155.06
2023-04-14T01:15:29.978Z,76155.06
2023-04-14T01:18:26.808Z,76159.13
2023-04-14T01:21:08.065Z,76163.19
2023-04-14T01:23:42.008Z,76169.25
2023-04-14T01:26:28.228Z,76171.28
2023-04-14T01:29:20.583Z,76173.31
2023-04-14T01:31:50.575Z,76179.38
2023-04-14T01:34:43.406Z,76173.31
2023-04-14T01:37:17.009Z,76175.34
2023-04-14T01:39:52.266Z,76179.38
2023-04-14T01:42:26.561Z,76175.34
2023-04-14T01:44:58.781Z,76171.28
2023-04-14T01:47:28.848Z,76187.50
2023-04-14T01:49:57.416Z,76195.59
2023-04-14T01:52:26.805Z,76193.56
2023-04-14T01:54:56.668Z,76191.56
2023-04-14T01:57:26.624Z,76185.47
2023-04-14T01:59:56.832Z,76191.56
2023-04-14T02:02:26.012Z,76191.56
2023-04-14T02:04:57.478Z,76193.56
2023-04-14T02:07:25.465Z,76199.66
2023-04-14T02:09:54.205Z,76207.78
2023-04-14T02:12:25.026Z,76211.81
2023-04-14T02:14:54.053Z,76211.81
2023-04-14T02:17:22.011Z,76211.81
2023-04-14T02:19:49.848Z,76215.88
2023-04-14T02:22:17.097Z,76219.94
2023-04-14T02:24:44.430Z,76223.97
2023-04-14T02:27:23.656Z,76223.97
2023-04-14T02:29:54.126Z,76230.06
2023-04-14T02:32:24.888Z,76226.00
2023-04-14T02:35:13.760Z,76232.09
2023-04-14T02:37:45.836Z,76232.09
2023-04-14T02:40:20.327Z,76236.16
2023-04-14T02:42:56.007Z,76236.16
2023-04-14T02:45:27.678Z,76236.16
2023-04-14T02:47:58.546Z,76242.22
2023-04-14T02:50:28.940Z,76248.31
2023-04-14T02:53:04.698Z,76252.34
2023-04-14T02:55:37.774Z,76256.41
2023-04-14T02:58:05.378Z,76256.41
2023-04-14T03:00:38.459Z,76258.44
2023-04-14T03:03:06.918Z,76272.63
2023-04-14T03:05:36.229Z,76264.53
2023-04-14T03:08:12.436Z,76268.56
2023-04-14T03:10:47.637Z,76276.69
2023-04-14T03:13:20.586Z,76282.75
2023-04-14T03:15:49.656Z,76280.72
2023-04-14T03:18:18.634Z,76284.78
2023-04-14T03:20:47.354Z,76288.84
2023-04-14T03:23:19.022Z,76288.84
2023-04-14T03:25:53.751Z,76292.91
2023-04-14T03:28:29.194Z,76303.03
2023-04-14T03:31:01.561Z,76301.00
2023-04-14T03:33:38.644Z,76305.06
2023-04-14T03:36:10.619Z,76313.16
2023-04-14T03:38:42.137Z,76313.16
2023-04-14T03:41:12.014Z,76321.28
2023-04-14T03:43:41.496Z,76327.34
2023-04-14T03:46:13.397Z,76327.34
2023-04-14T03:48:46.876Z,76327.34
2023-04-14T03:51:17.239Z,76329.38
2023-04-14T03:53:46.749Z,76333.44
2023-04-14T03:56:17.522Z,76333.44
2023-04-14T03:58:51.482Z,76333.44
2023-04-14T04:01:20.587Z,76337.50
2023-04-14T04:03:48.843Z,76327.34
2023-04-14T04:06:16.909Z,76331.41
2023-04-14T04:08:47.350Z,76321.28
2023-04-14T04:11:18.875Z,76305.06
2023-04-14T04:13:49.439Z,76301.00
2023-04-14T04:16:17.341Z,76301.00
2023-04-14T04:18:48.454Z,76296.94
2023-04-14T04:21:20.542Z,76292.91
2023-04-14T04:23:53.369Z,76296.94
2023-04-14T04:26:23.551Z,76292.91
2023-04-14T04:28:52.605Z,76288.84
2023-04-14T04:31:22.162Z,76288.84
2023-04-14T04:33:50.795Z,76292.91
2023-04-14T04:36:19.142Z,76298.97
2023-04-14T04:38:46.737Z,76301.00
2023-04-14T04:41:28.042Z,76296.94
2023-04-14T04:43:59.062Z,76296.94
2023-04-14T04:46:38.290Z,76292.91
2023-04-14T04:49:05.874Z,76296.94
2023-04-14T04:51:32.852Z,76298.97
2023-04-14T04:54:00.413Z,76288.84
2023-04-14T04:56:27.539Z,76282.75
2023-04-14T04:58:55.024Z,76284.78
2023-04-14T05:01:22.370Z,76268.56
2023-04-14T05:03:50.064Z,76264.53
2023-04-14T05:06:17.507Z,76256.41
2023-04-14T05:08:44.986Z,76256.41
2023-04-14T05:11:12.034Z,76248.31
2023-04-14T05:13:39.233Z,76244.25
2023-04-14T05:16:08.223Z,76240.19
2023-04-14T05:18:36.684Z,76232.09
2023-04-14T05:21:03.953Z,76228.03
2023-04-14T05:23:33.778Z,76223.97
2023-04-14T05:26:16.394Z,76211.81
2023-04-14T05:28:48.700Z,76199.66
2023-04-14T05:31:16.283Z,76195.59
2023-04-14T05:33:44.133Z,76187.50
2023-04-14T05:36:11.067Z,76177.38
2023-04-14T05:38:41.803Z,76175.34
2023-04-14T05:41:09.247Z,76167.22
2023-04-14T05:43:37.255Z,76159.13
2023-04-14T05:46:04.720Z,76138.84
2023-04-14T05:49:40.910Z,76122.63
2023-04-14T05:52:08.766Z,76116.56
2023-04-14T05:54:35.810Z,76104.41
2023-04-14T05:57:03.083Z,76102.38
2023-04-14T05:59:30.033Z,76094.25
2023-04-14T06:01:57.411Z,76086.16
2023-04-14T06:04:24.532Z,76074.00
2023-04-14T06:06:51.904Z,76061.84
2023-04-14T06:09:19.471Z,76041.56
2023-04-14T06:11:46.778Z,76037.50
2023-04-14T06:14:13.835Z,76021.31
2023-04-14T06:16:41.134Z,76017.25
2023-04-14T06:19:08.405Z,76009.13
2023-04-14T06:21:35.996Z,76001.03
2023-04-14T06:24:03.159Z,75992.94
2023-04-14T06:26:31.290Z,75986.84
2023-04-14T06:28:59.619Z,75968.59
2023-04-14T06:31:27.187Z,75952.38
2023-04-14T06:33:54.607Z,75924.00
2023-04-14T06:36:21.970Z,75903.75
2023-04-14T06:38:49.275Z,75911.84
2023-04-14T06:41:16.698Z,75899.69
2023-04-14T06:43:44.058Z,75883.47
2023-04-14T06:46:11.651Z,75879.44
2023-04-14T06:48:38.825Z,75867.28
2023-04-14T06:51:07.729Z,75879.44
2023-04-14T06:53:35.272Z,75875.38
2023-04-14T06:56:02.562Z,75855.09
2023-04-14T06:58:29.949Z,75838.91
2023-04-14T07:01:02.561Z,75822.69
2023-04-14T07:03:31.308Z,75804.44
2023-04-14T07:06:07.097Z,75806.47
2023-04-14T07:08:35.433Z,75826.72
2023-04-14T07:11:09.015Z,75826.72
2023-04-14T07:13:37.396Z,75814.56
2023-04-14T07:16:08.657Z,75806.47
2023-04-14T07:18:35.831Z,75798.38
2023-04-14T07:21:03.073Z,75792.28
2023-04-14T07:23:30.304Z,75798.38
2023-04-14T07:25:59.119Z,75786.19
2023-04-14T07:28:28.116Z,75778.09
2023-04-14T07:30:56.011Z,75765.94
2023-04-14T07:33:24.626Z,75751.75
2023-04-14T07:36:03.011Z,75749.72
2023-04-14T07:38:34.072Z,75741.63
2023-04-14T07:41:06.580Z,75729.47
2023-04-14T07:43:37.446Z,75713.25
2023-04-14T07:46:07.054Z,75701.09
2023-04-14T07:48:36.207Z,75697.03
2023-04-14T07:51:04.904Z,75664.59
2023-04-14T07:53:33.707Z,75640.28
2023-04-14T07:56:01.034Z,75615.97
2023-04-14T07:58:29.438Z,75603.81
2023-04-14T08:00:57.524Z,75579.50
2023-04-14T08:03:24.786Z,75563.28
2023-04-14T08:05:52.700Z,75551.13
2023-04-14T08:08:19.950Z,75534.91
2023-04-14T08:10:47.315Z,75522.75
2023-04-14T08:13:14.537Z,75520.72
2023-04-14T08:15:41.858Z,75510.59
2023-04-14T08:18:09.032Z,75502.50
2023-04-14T08:20:36.364Z,75484.25
2023-04-14T08:23:04.384Z,75453.84
2023-04-14T08:25:31.678Z,75441.69
2023-04-14T08:27:58.843Z,75425.47
2023-04-14T08:30:26.342Z,75421.44
2023-04-14T08:32:53.925Z,75393.06
2023-04-14T08:35:35.669Z,75397.13
2023-04-14T08:38:09.186Z,75415.34
2023-04-14T08:40:41.456Z,75441.69
2023-04-14T08:43:09.272Z,75457.91
2023-04-14T08:45:36.981Z,75457.91
2023-04-14T08:48:05.344Z,75457.91
2023-04-14T08:50:49.462Z,75470.06
2023-04-14T08:53:19.774Z,75457.91
2023-04-14T08:55:48.045Z,75445.75
2023-04-14T08:58:16.059Z,75419.41
2023-04-14T09:00:43.937Z,75409.28
2023-04-14T09:03:11.720Z,75380.91
2023-04-14T09:05:41.308Z,75356.59
2023-04-14T09:08:08.211Z,75344.44
2023-04-14T09:10:36.312Z,75334.28
2023-04-14T09:13:04.934Z,75332.28
2023-04-14T09:15:32.323Z,75332.28
2023-04-14T09:17:59.536Z,75360.63
2023-04-14T09:20:38.636Z,75393.06
2023-04-14T09:23:11.058Z,75411.28
2023-04-14T09:25:40.219Z,75407.25
2023-04-14T09:28:08.230Z,75401.16
2023-04-14T09:30:36.387Z,75380.91
2023-04-14T09:35:52.668Z,75376.84
2023-04-14T09:38:33.561Z,75368.75
2023-04-14T09:41:01.787Z,75360.63
2023-04-14T09:43:29.371Z,75364.69
2023-04-14T09:45:58.550Z,75352.53
2023-04-14T09:48:26.237Z,75328.22
2023-04-14T09:51:10.055Z,75332.28
2023-04-14T09:53:39.604Z,75332.28
2023-04-14T09:56:08.816Z,75324.16
2023-04-14T09:58:41.612Z,75287.69
2023-04-14T10:01:14.824Z,75287.69
2023-04-14T10:03:44.034Z,75287.69
2023-04-14T10:06:23.092Z,75287.69
2023-04-14T10:08:52.290Z,75299.84
2023-04-14T10:11:26.217Z,75277.56
2023-04-14T10:13:58.619Z,75259.31
2023-04-14T10:16:26.679Z,75263.38
2023-04-14T10:18:54.713Z,75275.53
2023-04-14T10:21:24.956Z,75303.91
2023-04-14T10:23:52.570Z,75322.13
2023-04-14T10:26:20.873Z,75328.22
2023-04-14T10:28:50.440Z,75299.84
2023-04-14T10:31:32.721Z,75259.31
2023-04-14T10:34:11.222Z,75206.63
2023-04-14T10:36:40.021Z,75174.22
2023-04-14T10:39:07.857Z,75137.75
2023-04-14T10:41:44.517Z,75137.75
2023-04-14T10:44:32.881Z,75145.84
2023-04-14T10:47:05.215Z,75135.72
2023-04-14T10:49:34.267Z,75182.31
2023-04-14T10:52:06.687Z,75182.31
2023-04-14T10:55:02.800Z,75192.44
2023-04-14T10:57:31.168Z,75178.28
2023-04-14T10:59:59.430Z,75166.09
2023-04-14T11:02:34.576Z,75174.22
2023-04-14T11:05:06.086Z,75174.22
2023-04-14T11:07:38.833Z,75170.16
2023-04-14T11:10:24.338Z,75162.06
2023-04-14T11:12:56.614Z,75133.69
2023-04-14T11:15:23.968Z,75129.63
2023-04-14T11:17:51.639Z,75121.53
2023-04-14T11:20:20.142Z,75121.53
2023-04-14T11:22:50.337Z,75123.56
2023-04-14T11:25:23.041Z,75162.06
2023-04-14T11:27:52.571Z,75153.94
2023-04-14T11:30:21.219Z,75147.88
2023-04-14T11:32:54.765Z,75160.03
2023-04-14T11:35:24.140Z,75174.22
2023-04-14T11:37:59.484Z,75190.44
2023-04-14T11:40:27.741Z,75204.63
2023-04-14T11:42:59.518Z,75208.66
2023-04-14T11:45:31.216Z,75194.47
2023-04-14T11:48:03.793Z,75178.28
2023-04-14T11:50:32.874Z,75174.22
2023-04-14T11:53:01.138Z,75174.22
2023-04-14T11:55:30.046Z,75178.28
2023-04-14T11:57:59.285Z,75190.44
2023-04-14T12:00:28.099Z,75174.22
2023-04-14T12:02:58.176Z,75166.09
2023-04-14T12:05:30.408Z,75174.22
2023-04-14T12:08:00.938Z,75176.25
2023-04-14T12:10:28.727Z,75182.31
2023-04-14T12:13:03.321Z,75168.13
2023-04-14T12:15:32.602Z,75164.09
2023-04-14T12:18:00.996Z,75166.09
2023-04-14T12:20:30.531Z,75170.16
2023-04-14T12:23:05.299Z,75164.09
2023-04-14T12:25:33.544Z,75174.22
2023-04-14T12:28:06.795Z,75182.31
2023-04-14T12:30:36.937Z,75192.44
2023-04-14T12:33:12.418Z,75172.19
2023-04-14T12:35:42.264Z,75170.16
2023-04-14T12:38:14.614Z,75164.09
2023-04-14T12:40:45.816Z,75133.69
2023-04-14T12:43:16.491Z,75121.53
2023-04-14T12:45:46.160Z,75105.31
2023-04-14T12:48:16.003Z,75076.97
2023-04-14T12:50:43.223Z,75048.59
2023-04-14T12:53:28.441Z,75048.59
2023-04-14T12:56:16.509Z,75040.47
2023-04-14T12:58:48.847Z,75042.50
2023-04-14T13:01:19.151Z,75004.00
2023-04-14T13:03:52.771Z,74947.28
2023-04-14T13:06:23.177Z,74931.06
2023-04-14T13:08:54.995Z,74922.97
2023-04-14T13:11:26.396Z,74935.13
2023-04-14T13:13:53.911Z,74959.44
2023-04-14T13:16:21.439Z,74967.53
2023-04-14T13:18:49.824Z,74999.97
2023-04-14T13:21:17.095Z,75012.13
2023-04-14T13:23:44.620Z,75020.22
2023-04-14T13:26:12.690Z,75052.66
2023-04-14T13:28:40.640Z,75048.59
2023-04-14T13:31:08.276Z,75056.69
2023-04-14T13:33:36.579Z,75074.94
2023-04-14T13:36:03.830Z,75081.00
2023-04-14T13:38:31.460Z,75081.00
2023-04-14T13:40:58.609Z,75081.00
2023-04-14T13:43:26.460Z,75064.81
2023-04-14T13:45:58.040Z,75066.81
2023-04-14T13:48:27.522Z,75085.06
2023-04-14T13:50:55.813Z,75099.25
2023-04-14T13:53:23.399Z,75093.16
2023-04-14T13:55:51.336Z,75099.25
2023-04-14T13:58:18.659Z,75103.28
2023-04-14T14:00:46.087Z,75093.16
2023-04-14T14:03:13.772Z,75068.84
2023-04-14T14:05:41.008Z,75068.84
2023-04-14T14:08:08.871Z,75062.78
2023-04-14T14:10:36.031Z,75028.31
2023-04-14T14:13:03.946Z,75024.28
2023-04-14T14:15:31.606Z,75040.47
2023-04-14T14:17:59.110Z,75028.31
2023-04-14T14:20:26.673Z,75012.13
2023-04-14T14:22:53.959Z,74989.84
2023-04-14T14:25:21.605Z,75004.00
2023-04-14T14:27:52.202Z,74983.75
2023-04-14T14:30:19.687Z,74955.38
2023-04-14T14:32:46.933Z,74933.09
2023-04-14T14:35:14.298Z,74927.03
2023-04-14T14:37:43.378Z,74949.31
2023-04-14T14:40:11.368Z,75004.00
2023-04-14T14:42:38.860Z,75040.47
2023-04-14T14:45:06.849Z,75052.66
2023-04-14T14:47:35.022Z,75048.59
2023-04-14T14:50:06.878Z,75048.59
2023-04-14T14:52:36.015Z,75048.59
2023-04-14T14:55:03.816Z,75030.34
2023-04-14T14:57:31.617Z,75020.22
2023-04-14T14:59:58.808Z,75028.31
2023-04-14T15:02:26.541Z,75032.38
2023-04-14T15:04:54.475Z,75028.31
2023-04-14T15:07:22.353Z,75012.13
2023-04-14T15:09:50.231Z,75028.31
2023-04-14T15:12:18.243Z,75028.31
2023-04-14T15:14:45.687Z,75024.28
2023-04-14T15:17:13.312Z,75020.22
2023-04-14T15:19:42.087Z,75012.13
2023-04-14T15:22:11.965Z,75004.00
2023-04-14T15:24:39.180Z,75012.13
2023-04-14T15:27:08.042Z,74983.75
2023-04-14T15:29:36.185Z,74977.66
2023-04-14T15:32:03.318Z,74981.72
2023-04-14T15:34:30.887Z,75020.22
2023-04-14T15:36:58.152Z,75089.13
2023-04-14T15:39:25.520Z,75117.47
2023-04-14T15:41:52.878Z,75137.75
2023-04-14T15:44:20.202Z,75153.94
2023-04-14T15:46:47.688Z,75160.03
2023-04-14T15:49:14.690Z,75121.53
2023-04-14T15:51:42.652Z,75085.06
2023-04-14T15:54:10.147Z,75085.06
2023-04-14T15:56:37.585Z,75105.31
2023-04-14T15:59:06.176Z,75113.44
2023-04-14T16:01:33.667Z,75141.78
2023-04-14T16:04:01.154Z,75162.06
2023-04-14T16:06:28.796Z,75174.22
2023-04-14T16:08:56.566Z,75182.31
2023-04-14T16:11:25.106Z,75190.44
2023-04-14T16:13:52.796Z,75198.53
2023-04-14T16:16:20.166Z,75194.47
2023-04-14T16:18:47.646Z,75210.69
2023-04-14T16:21:15.216Z,75218.78
2023-04-14T16:23:42.989Z,75243.09
2023-04-14T16:26:10.732Z,75259.31
2023-04-14T16:28:39.688Z,75283.63
2023-04-14T16:31:09.347Z,75320.13
2023-04-14T16:33:36.948Z,75324.16
2023-04-14T16:36:05.294Z,75336.31
2023-04-14T16:38:32.392Z,75344.44
2023-04-14T16:41:01.067Z,75348.47
2023-04-14T16:43:31.345Z,75352.53
2023-04-14T16:46:05.604Z,75368.75
2023-04-14T16:48:33.444Z,75384.97
2023-04-14T16:51:09.070Z,75409.28
2023-04-14T16:53:40.199Z,75409.28
2023-04-14T16:56:09.152Z,75427.50
2023-04-14T16:58:37.953Z,75457.91
2023-04-14T17:01:07.002Z,75461.97
2023-04-14T17:03:35.092Z,75466.00
2023-04-14T17:06:03.281Z,75474.13
2023-04-14T17:08:30.344Z,75482.22
2023-04-14T17:10:58.149Z,75502.50
2023-04-14T17:13:25.697Z,75502.50
2023-04-14T17:16:05.549Z,75514.66
2023-04-14T17:18:36.152Z,75526.81
2023-04-14T17:21:06.540Z,75543.00
2023-04-14T17:23:38.006Z,75555.19
2023-04-14T17:26:06.047Z,75557.19
2023-04-14T17:28:34.541Z,75567.34
2023-04-14T17:31:03.324Z,75583.53
2023-04-14T17:33:30.863Z,75591.66
2023-04-14T17:35:58.294Z,75595.69
2023-04-14T17:38:25.574Z,75607.88
2023-04-14T17:40:53.425Z,75611.91
2023-04-14T17:43:21.091Z,75626.09
2023-04-14T17:45:50.621Z,75636.22
2023-04-14T17:48:20.881Z,75644.34
2023-04-14T17:50:48.714Z,75652.44
2023-04-14T17:53:16.405Z,75660.56
2023-04-14T17:55:44.947Z,75660.56
2023-04-14T17:58:12.378Z,75672.72
2023-04-14T18:00:40.178Z,75676.75
2023-04-14T18:03:07.635Z,75688.94
2023-04-14T18:05:35.370Z,75692.97
2023-04-14T18:08:02.818Z,75697.03
2023-04-14T18:10:30.460Z,75697.03
2023-04-14T18:12:57.460Z,75709.19
2023-04-14T18:15:24.807Z,75711.22
2023-04-14T18:17:52.488Z,75721.34
2023-04-14T18:20:25.388Z,75733.50
2023-04-14T18:22:57.874Z,75737.56
2023-04-14T18:25:25.754Z,75737.56
2023-04-14T18:30:23.530Z,75737.56
2023-04-14T18:32:50.658Z,75737.56
2023-04-14T18:35:18.837Z,75733.50
2023-04-14T18:37:46.501Z,75737.56
2023-04-14T18:40:13.769Z,75741.63
2023-04-14T18:42:40.814Z,75743.66
2023-04-14T18:45:09.736Z,75745.66
2023-04-14T18:47:36.829Z,75761.88
2023-04-14T18:50:05.318Z,75770.00
2023-04-14T18:52:32.506Z,75778.09
2023-04-14T18:55:00.149Z,75778.09
2023-04-14T18:57:28.992Z,75782.16
2023-04-14T18:59:56.477Z,75792.28
2023-04-14T19:02:23.685Z,75794.31
2023-04-14T19:04:51.395Z,75794.31
2023-04-14T19:07:18.771Z,75796.34
2023-04-14T19:09:46.222Z,75794.31
2023-04-14T19:12:25.481Z,75794.31
2023-04-14T19:14:56.067Z,75786.19
2023-04-14T19:17:23.141Z,75800.38
2023-04-14T19:19:50.655Z,75798.38
2023-04-14T19:22:17.584Z,75794.31
2023-04-14T19:24:45.167Z,75796.34
2023-04-14T19:27:12.188Z,75786.19
2023-04-14T19:29:40.138Z,75782.16
2023-04-14T19:32:07.025Z,75786.19
2023-04-14T19:34:34.290Z,75790.25
2023-04-14T19:37:03.441Z,75790.25
2023-04-14T19:39:31.269Z,75796.34
2023-04-14T19:41:58.247Z,75802.41
2023-04-14T19:44:25.819Z,75818.63
2023-04-14T19:46:53.401Z,75812.56
2023-04-14T19:49:20.704Z,75818.63
2023-04-14T19:51:49.229Z,75830.78
2023-04-14T19:54:16.481Z,75838.91
2023-04-14T19:56:44.170Z,75840.91
2023-04-14T19:59:11.553Z,75842.94
2023-04-14T20:01:38.679Z,75851.06
2023-04-14T20:04:11.991Z,75847.00
2023-04-14T20:06:41.224Z,75851.06
2023-04-14T20:09:09.464Z,75859.16
2023-04-14T20:11:37.235Z,75859.16
2023-04-14T20:14:04.918Z,75863.22
2023-04-14T20:16:32.900Z,75871.31
2023-04-14T20:19:00.857Z,75863.22
2023-04-14T20:21:28.284Z,75871.31
2023-04-14T20:23:56.499Z,75879.44
2023-04-14T20:26:23.641Z,75877.41
2023-04-14T20:28:51.321Z,75873.34
2023-04-14T20:31:18.810Z,75871.31
2023-04-14T20:33:46.291Z,75871.31
2023-04-14T20:36:14.454Z,75867.28
2023-04-14T20:38:41.944Z,75871.31
2023-04-14T20:41:09.092Z,75871.31
2023-04-14T20:43:36.606Z,75875.38
2023-04-14T20:46:04.449Z,75867.28
2023-04-14T20:48:32.351Z,75867.28
2023-04-14T20:51:00.582Z,75863.22
2023-04-14T20:53:30.037Z,75875.38
2023-04-14T20:55:57.181Z,75879.44
2023-04-14T20:58:24.801Z,75879.44
2023-04-14T21:00:52.082Z,75879.44
2023-04-14T21:03:20.025Z,75879.44
2023-04-14T21:05:47.330Z,75883.47
2023-04-14T21:08:15.475Z,75881.44
2023-04-14T21:11:02.184Z,75887.53
2023-04-14T21:15:42.453Z,75883.47
2023-04-14T21:16:17.632Z,75875.38
2023-04-14T21:18:45.118Z,75883.47
2023-04-14T21:21:13.115Z,75883.47
2023-04-14T21:23:41.412Z,75883.47
2023-04-14T21:26:08.496Z,75887.53
2023-04-14T21:28:35.804Z,75887.53
2023-04-14T21:31:03.221Z,75887.53
2023-04-14T21:33:32.377Z,75887.53
2023-04-14T21:36:00.439Z,75893.63
2023-04-14T21:38:28.164Z,75899.69
2023-04-14T21:40:55.761Z,75903.75
2023-04-14T21:43:23.127Z,75903.75
2023-04-14T21:45:50.332Z,75899.69
2023-04-14T21:48:19.347Z,75897.66
2023-04-14T21:50:46.851Z,75903.75
2023-04-14T21:53:14.228Z,75903.75
2023-04-14T21:55:42.211Z,75903.75
2023-04-14T21:58:09.534Z,75897.66
2023-04-14T22:00:37.354Z,75897.66
2023-04-14T22:03:04.792Z,75891.59
2023-04-14T22:05:32.605Z,75895.66
2023-04-14T22:08:00.061Z,75891.59
2023-04-14T22:10:34.989Z,75883.47
2023-04-14T22:13:03.101Z,75883.47
2023-04-14T22:15:30.735Z,75889.56
2023-04-14T22:17:58.808Z,75883.47
2023-04-14T22:20:26.454Z,75887.53
2023-04-14T22:22:53.905Z,75887.53
2023-04-14T22:25:21.053Z,75891.59
2023-04-14T22:27:48.546Z,75883.47
2023-04-14T22:30:15.903Z,75885.50
2023-04-14T22:32:43.328Z,75885.50
2023-04-14T22:35:10.625Z,75887.53
2023-04-14T22:37:38.057Z,75883.47
2023-04-14T22:40:06.216Z,75889.56
2023-04-14T22:42:33.647Z,75887.53
2023-04-14T22:45:01.474Z,75887.53
2023-04-14T22:47:29.238Z,75883.47
2023-04-14T22:49:56.148Z,75895.66
2023-04-14T22:52:23.582Z,75895.66
2023-04-14T22:54:50.788Z,75891.59
2023-04-14T22:57:18.361Z,75887.53
2023-04-14T22:59:46.459Z,75895.66
2023-04-14T23:02:14.087Z,75895.66
2023-04-14T23:04:41.665Z,75899.69
2023-04-14T23:07:08.954Z,75885.50
2023-04-14T23:09:36.301Z,75891.59
2023-04-14T23:12:04.562Z,75895.66
2023-04-14T23:14:32.440Z,75899.69
2023-04-14T23:17:00.025Z,75895.66
2023-04-14T23:19:27.369Z,75899.69
2023-04-14T23:21:54.705Z,75891.59
2023-04-14T23:24:22.557Z,75891.59
2023-04-14T23:26:50.010Z,75895.66
2023-04-14T23:29:17.101Z,75891.59
2023-04-14T23:31:44.469Z,75903.75
2023-04-14T23:34:11.780Z,75903.75
2023-04-14T23:36:39.299Z,75891.59
2023-04-14T23:39:06.271Z,75895.66
2023-04-14T23:41:33.849Z,75907.81
2023-04-14T23:44:00.710Z,75903.75
2023-04-14T23:46:28.454Z,75907.81
2023-04-14T23:48:55.784Z,75903.75
2023-04-14T23:51:23.822Z,75907.81
2023-04-14T23:53:51.781Z,75907.81
2023-04-14T23:56:19.143Z,75915.91
2023-04-14T23:58:46.046Z,75903.75
